Jefferson, NC

4:04 PM EDT on June 23, 2017 (GMT -0400)
Ashe County

Weather History for KGEV - January, 2004

Change the Weather History Date:

Tuesday, January 13, 2004

  Actual Average Record
Temperature  
Mean Temperature 42 °F -  
Max Temperature 48 °F 39 °F 65 °F (2013)
Min Temperature 35 °F 21 °F -5 °F (1973)
Degree Days  
Heating Degree Days 24    
Moisture  
Dew Point 22 °F    
Average Humidity 51    
Maximum Humidity 70    
Minimum Humidity 27    
Precipitation  
Precipitation 0.00 in - - ()
Sea Level Pressure  
Sea Level Pressure 30.05 in    
Wind  
Wind Speed 15 mph (WNW)    
Max Wind Speed 36 mph    
Max Gust Speed 53 mph    
Visibility 10 miles    
Events      
Averages and records for this station are not official NWS values.
T = Trace of Precipitation, MM = Missing Value Source: NWS Daily Summary

Daily Weather History Graph

Daily Weather History Graph

Search for Another Location

Airport or City:

Trip Planner

Search our weather history database for the weather conditions in past years. The results will help you decide how hot, cold, wet, or windy it might be!

Date:

Astronomy

Jan. 13, 2004 Rise Set
Actual Time 7:37 AM EST 5:31 PM EST
Civil Twilight 7:09 AM EST 5:59 PM EST
Nautical Twilight 6:37 AM EST 6:31 PM EST
Astronomical Twilight 6:06 AM EST 7:02 PM EST
Moon 11:42 PM EST (1/13) 11:18 AM EST (1/13)
Length of Visible Light 10h 50m
Length of Day
9h 54m
Waning Gibbous, 66% of the Moon is Illuminated
Jan 13
Waning Gibbous
Jan 14
Last Quarter
Jan 21
New
Jan 29
First Quarter
Feb 6
Full

Hourly Weather History & Observations

Time (EST) Temp. Windchill Dew Point Humidity Pressure Visibility Wind Dir Wind Speed Gust Speed Precip Events Conditions
12:00 AM 37.4 °F 33.8 °F 26.6 °F 65% 30.10 in 10.0 mi SE 4.6 mph - N/A   Mostly Cloudy
12:20 AM 37.4 °F 33.8 °F 26.6 °F 65% 30.11 in 10.0 mi South 4.6 mph - N/A   Overcast
12:40 AM 37.4 °F 33.8 °F 26.6 °F 65% 30.10 in 10.0 mi ESE 4.6 mph - N/A   Overcast
1:00 AM 37.4 °F 33.8 °F 28.4 °F 70% 30.11 in 10.0 mi ESE 4.6 mph - N/A   Overcast
1:20 AM 37.4 °F 34.9 °F 28.4 °F 70% 30.10 in 10.0 mi SE 3.5 mph - N/A   Overcast
1:40 AM 37.4 °F 28.9 °F 28.4 °F 70% 30.10 in 10.0 mi West 13.8 mph 26.5 mph N/A   Overcast
2:02 AM 37.4 °F 31.4 °F 28.4 °F 70% 30.11 in 10.0 mi WSW 8.1 mph 39.1 mph N/A   Overcast
2:21 AM 37.4 °F 33.8 °F 28.4 °F 70% 30.11 in 10.0 mi SE 4.6 mph - N/A   Overcast
2:42 AM 37.4 °F 29.8 °F 28.4 °F 70% 30.11 in 10.0 mi WNW 11.5 mph 23.0 mph N/A   Overcast
3:00 AM 37.4 °F - 28.4 °F 70% 30.11 in 10.0 mi Calm Calm - N/A   Overcast
3:20 AM 37.4 °F 30.3 °F 28.4 °F 70% 30.11 in 10.0 mi West 10.4 mph 27.6 mph N/A   Overcast
3:40 AM 37.4 °F 30.8 °F 28.4 °F 70% 30.10 in 10.0 mi NW 9.2 mph 25.3 mph N/A   Mostly Cloudy
4:00 AM 37.4 °F 30.8 °F 28.4 °F 70% 30.09 in 10.0 mi WNW 9.2 mph 20.7 mph N/A   Mostly Cloudy
4:20 AM 35.6 °F 26.6 °F 26.6 °F 70% 30.08 in 10.0 mi West 13.8 mph 24.2 mph N/A   Scattered Clouds
4:40 AM 35.6 °F 28.0 °F 26.6 °F 70% 30.07 in 10.0 mi WNW 10.4 mph 43.7 mph N/A   Scattered Clouds
5:00 AM 35.6 °F 29.2 °F 26.6 °F 70% 30.07 in 10.0 mi West 8.1 mph 33.4 mph N/A   Clear
5:20 AM 35.6 °F 25.9 °F 24.8 °F 65% 30.06 in 10.0 mi WNW 16.1 mph 33.4 mph N/A   Clear
5:40 AM 35.6 °F 26.6 °F 24.8 °F 65% 30.07 in 10.0 mi WNW 13.8 mph 28.8 mph N/A   Clear
6:00 AM 35.6 °F 26.6 °F 24.8 °F 65% 30.08 in 10.0 mi WNW 13.8 mph 24.2 mph N/A   Clear
6:40 AM 35.6 °F 28.0 °F 23.0 °F 60% 30.08 in 10.0 mi WNW 10.4 mph 29.9 mph N/A   Clear
7:00 AM 35.6 °F 29.2 °F 21.2 °F 56% 30.09 in 10.0 mi West 8.1 mph 34.5 mph N/A   Clear
7:20 AM 35.6 °F 24.2 °F 21.2 °F 56% 30.08 in 10.0 mi WNW 21.9 mph 35.7 mph N/A   Clear
7:40 AM 35.6 °F 25.2 °F 21.2 °F 56% 30.08 in 10.0 mi NW 18.4 mph 27.6 mph N/A   Clear
8:00 AM 35.6 °F 25.9 °F 21.2 °F 56% 30.08 in 10.0 mi WNW 16.1 mph 35.7 mph N/A   Clear
8:20 AM 35.6 °F 25.5 °F 21.2 °F 56% 30.08 in 10.0 mi WNW 17.3 mph 41.4 mph N/A   Clear
8:42 AM 35.6 °F 24.0 °F 21.2 °F 56% 30.09 in 10.0 mi WNW 23.0 mph 34.5 mph N/A   Clear
9:00 AM 37.4 °F 25.9 °F 21.2 °F 52% 30.08 in 10.0 mi WNW 25.3 mph 40.3 mph N/A   Clear
9:20 AM 37.4 °F 26.9 °F 19.4 °F 48% 30.08 in 10.0 mi NW 20.7 mph 35.7 mph N/A   Clear
9:40 AM 37.4 °F 26.4 °F 19.4 °F 48% 30.09 in 10.0 mi WNW 23.0 mph 39.1 mph N/A   Clear
10:02 AM 39.2 °F 29.3 °F 19.4 °F 45% 30.09 in 10.0 mi WNW 20.7 mph 41.4 mph N/A   Clear
10:20 AM 39.2 °F 28.3 °F 19.4 °F 45% 30.09 in 10.0 mi WNW 25.3 mph 42.6 mph N/A   Clear
10:40 AM 42.8 °F 32.7 °F 17.6 °F 36% 30.07 in 10.0 mi WNW 27.6 mph 47.2 mph N/A   Clear
11:00 AM 42.8 °F 32.9 °F 15.8 °F 34% 30.07 in 10.0 mi WNW 26.5 mph 47.2 mph N/A   Clear
11:22 AM 44.6 °F 34.9 °F 15.8 °F 31% 30.06 in 10.0 mi WNW 28.8 mph 40.3 mph N/A   Clear
11:40 AM 44.6 °F 35.7 °F 15.8 °F 31% 30.05 in 10.0 mi WNW 24.2 mph 46.0 mph N/A   Clear
12:00 PM 44.6 °F 34.9 °F 15.8 °F 31% 30.04 in 10.0 mi WNW 28.8 mph 44.9 mph N/A   Clear
12:20 PM 44.6 °F 34.6 °F 15.8 °F 31% 30.02 in 10.0 mi West 31.1 mph 52.9 mph N/A   Clear
12:40 PM 46.4 °F 36.9 °F 15.8 °F 29% 30.00 in 10.0 mi WNW 32.2 mph 47.2 mph N/A   Clear
1:00 PM 48.2 °F - 15.8 °F 27% 30.00 in 10.0 mi WNW 28.8 mph 50.6 mph N/A   Clear
1:22 PM 46.4 °F 36.4 °F 15.8 °F 29% 29.99 in 10.0 mi WNW 35.7 mph 52.9 mph N/A   Clear
1:40 PM 46.4 °F 37.7 °F 15.8 °F 29% 29.99 in 10.0 mi WNW 26.5 mph 51.8 mph N/A   Clear
2:00 PM 46.4 °F 36.5 °F 15.8 °F 29% 29.99 in 10.0 mi WNW 34.5 mph 44.9 mph N/A   Clear
2:20 PM 44.6 °F 34.7 °F 15.8 °F 31% 29.98 in 10.0 mi WNW 29.9 mph 46.0 mph N/A   Clear
2:42 PM 44.6 °F 33.9 °F 15.8 °F 31% 29.98 in 10.0 mi WNW 35.7 mph 51.8 mph N/A   Clear
3:00 PM 44.6 °F 34.6 °F 15.8 °F 31% 29.99 in 10.0 mi WNW 31.1 mph 46.0 mph N/A   Clear
3:20 PM 44.6 °F 34.4 °F 17.6 °F 34% 29.98 in 10.0 mi WNW 32.2 mph 51.8 mph N/A   Clear
3:40 PM 44.6 °F 34.1 °F 19.4 °F 37% 29.98 in 10.0 mi West 34.5 mph 47.2 mph N/A   Clear
4:00 PM 42.8 °F 33.1 °F 19.4 °F 39% 29.99 in 10.0 mi West 25.3 mph 44.9 mph N/A   Clear
4:20 PM 42.8 °F 32.7 °F 21.2 °F 42% 29.99 in 10.0 mi WNW 27.6 mph 44.9 mph N/A   Clear
4:40 PM 42.8 °F 33.5 °F 21.2 °F 42% 29.99 in 10.0 mi WNW 23.0 mph 50.6 mph N/A   Clear
5:02 PM 41.0 °F 30.2 °F 21.2 °F 45% 29.99 in 10.0 mi WNW 27.6 mph 47.2 mph N/A   Clear
5:20 PM 41.0 °F 30.5 °F 21.2 °F 45% 30.00 in 10.0 mi West 26.5 mph 46.0 mph N/A   Clear
5:40 PM 41.0 °F 31.9 °F 23.0 °F 49% 30.01 in 10.0 mi WNW 19.6 mph 43.7 mph N/A   Clear
6:00 PM 39.2 °F 28.5 °F 24.8 °F 56% 30.01 in 10.0 mi WNW 24.2 mph 35.7 mph N/A   Clear
6:24 PM 39.2 °F 28.7 °F 24.8 °F 56% 30.03 in 10.0 mi WNW 23.0 mph 42.6 mph N/A   Clear
6:40 PM 39.2 °F 29.6 °F 24.8 °F 56% 30.03 in 10.0 mi WNW 19.6 mph 34.5 mph N/A   Clear
7:01 PM 39.2 °F 28.0 °F 24.8 °F 56% 30.02 in 10.0 mi WNW 26.5 mph 38.0 mph N/A   Clear
7:20 PM 39.2 °F 29.6 °F 24.8 °F 56% 30.04 in 10.0 mi WNW 19.6 mph 32.2 mph N/A   Clear
7:40 PM 39.2 °F 28.7 °F 24.8 °F 56% 30.03 in 10.0 mi West 23.0 mph 38.0 mph N/A   Clear
8:00 PM 39.2 °F 30.8 °F 23.0 °F 52% 30.04 in 10.0 mi NW 15.0 mph 33.4 mph N/A   Clear
8:20 PM 39.2 °F 29.0 °F 24.8 °F 56% 30.04 in 10.0 mi NW 21.9 mph 32.2 mph N/A   Clear
8:40 PM 39.2 °F 30.8 °F 23.0 °F 52% 30.05 in 10.0 mi NW 15.0 mph 43.7 mph N/A   Clear
9:00 PM 39.2 °F 29.3 °F 23.0 °F 52% 30.04 in 10.0 mi WNW 20.7 mph 35.7 mph N/A   Clear
9:20 PM 39.2 °F 29.3 °F 23.0 °F 52% 30.03 in 10.0 mi WNW 20.7 mph 36.8 mph N/A   Clear
9:40 PM 39.2 °F 27.8 °F 21.2 °F 49% 30.02 in 10.0 mi WNW 27.6 mph 44.9 mph N/A   Clear
10:00 PM 37.4 °F 25.9 °F 21.2 °F 52% 30.01 in 10.0 mi NW 25.3 mph 46.0 mph N/A   Clear
10:20 PM 37.4 °F 25.2 °F 21.2 °F 52% 30.02 in 10.0 mi NW 28.8 mph 39.1 mph N/A   Clear
10:40 PM 37.4 °F 27.2 °F 21.2 °F 52% 30.03 in 10.0 mi NW 19.6 mph 40.3 mph N/A   Clear
11:00 PM 37.4 °F 25.9 °F 23.0 °F 56% 30.02 in 10.0 mi NW 25.3 mph 36.8 mph N/A   Clear
11:20 PM 37.4 °F 28.2 °F 24.8 °F 60% 30.03 in 10.0 mi NW 16.1 mph 42.6 mph N/A   Clear
11:40 PM 35.6 °F 25.9 °F 24.8 °F 65% 30.04 in 10.0 mi NW 16.1 mph 41.4 mph N/A   Clear